createdAt,value
2017-12-30T00:00:20.872Z,994.79
2017-12-30T00:01:20.781Z,994.80
2017-12-30T00:03:13.673Z,994.84
2017-12-30T00:04:13.687Z,994.86
2017-12-30T00:06:06.604Z,994.86
2017-12-30T00:07:06.607Z,994.91
2017-12-30T00:08:59.501Z,994.90
2017-12-30T00:09:59.516Z,994.92
2017-12-30T00:11:52.447Z,994.96
2017-12-30T00:12:52.443Z,994.97
2017-12-30T00:14:45.335Z,995.01
2017-12-30T00:15:45.352Z,994.97
2017-12-30T00:17:38.292Z,995.02
2017-12-30T00:18:38.288Z,995.07
2017-12-30T00:20:31.199Z,995.09
2017-12-30T00:21:31.206Z,995.08
2017-12-30T00:23:24.088Z,995.14
2017-12-30T00:24:24.104Z,995.18
2017-12-30T00:26:17.016Z,995.14
2017-12-30T00:27:17.022Z,995.19
2017-12-30T00:29:09.909Z,995.19
2017-12-30T00:30:09.926Z,995.15
2017-12-30T00:32:02.868Z,995.13
2017-12-30T00:33:02.861Z,995.16
2017-12-30T00:34:55.768Z,995.14
2017-12-30T00:35:55.774Z,995.17
2017-12-30T00:37:48.684Z,995.17
2017-12-30T00:38:48.681Z,995.14
2017-12-30T00:40:41.598Z,995.17
2017-12-30T00:41:41.591Z,995.20
2017-12-30T00:43:34.486Z,995.15
2017-12-30T00:44:34.502Z,995.18
2017-12-30T00:46:27.421Z,995.21
2017-12-30T00:47:27.415Z,995.19
2017-12-30T00:49:20.310Z,995.24
2017-12-30T00:50:20.328Z,995.27
2017-12-30T00:52:13.241Z,995.29
2017-12-30T00:53:13.235Z,995.23
2017-12-30T00:55:07.123Z,995.17
2017-12-30T00:56:07.140Z,995.23
2017-12-30T00:58:00.065Z,995.21
2017-12-30T00:59:00.052Z,995.17
2017-12-30T01:00:52.974Z,995.15
2017-12-30T01:01:52.967Z,995.18
2017-12-30T01:03:45.880Z,995.21
2017-12-30T01:04:45.876Z,995.23
2017-12-30T01:06:38.797Z,995.21
2017-12-30T01:07:38.789Z,995.23
2017-12-30T01:09:31.698Z,995.27
2017-12-30T01:10:31.702Z,995.29
2017-12-30T01:12:24.614Z,995.35
2017-12-30T01:13:24.609Z,995.34
2017-12-30T01:15:17.515Z,995.33
2017-12-30T01:16:17.526Z,995.37
2017-12-30T01:18:10.440Z,995.39
2017-12-30T01:19:10.434Z,995.41
2017-12-30T01:21:03.367Z,995.36
2017-12-30T01:22:03.344Z,995.38
2017-12-30T01:23:56.242Z,995.40
2017-12-30T01:24:56.257Z,995.36
2017-12-30T01:26:49.173Z,995.29
2017-12-30T01:27:49.170Z,995.26
2017-12-30T01:29:42.073Z,995.22
2017-12-30T01:30:42.085Z,995.28
2017-12-30T01:32:34.998Z,995.17
2017-12-30T01:33:34.996Z,995.21
2017-12-30T01:35:28.110Z,995.37
2017-12-30T01:36:28.125Z,995.33
2017-12-30T01:38:21.041Z,995.13
2017-12-30T01:39:21.036Z,995.16
2017-12-30T01:41:13.949Z,995.19
2017-12-30T01:42:13.946Z,995.21
2017-12-30T01:44:06.978Z,995.14
2017-12-30T01:45:06.992Z,995.16
2017-12-30T01:46:59.906Z,995.25
2017-12-30T01:47:59.903Z,995.23
2017-12-30T01:49:52.798Z,995.30
2017-12-30T01:50:52.814Z,995.33
2017-12-30T01:52:45.737Z,995.36
2017-12-30T01:53:45.733Z,995.34
2017-12-30T01:55:38.629Z,995.39
2017-12-30T01:56:38.646Z,995.42
2017-12-30T01:58:31.560Z,995.33
2017-12-30T01:59:31.560Z,995.34
2017-12-30T02:01:24.471Z,995.27
2017-12-30T02:02:24.470Z,995.24
2017-12-30T02:04:18.363Z,995.21
2017-12-30T02:05:18.380Z,995.19
2017-12-30T02:07:11.301Z,995.16
2017-12-30T02:08:11.301Z,995.15
2017-12-30T02:10:04.194Z,995.15
2017-12-30T02:11:04.210Z,995.16
2017-12-30T02:12:57.128Z,995.14
2017-12-30T02:13:57.122Z,995.17
2017-12-30T02:15:50.021Z,995.14
2017-12-30T02:16:50.035Z,995.14
2017-12-30T02:18:42.948Z,995.13
2017-12-30T02:19:42.945Z,995.13
2017-12-30T02:21:35.860Z,995.05
2017-12-30T02:22:35.857Z,995.13
2017-12-30T02:24:28.750Z,995.06
2017-12-30T02:25:28.764Z,995.08
2017-12-30T02:27:21.688Z,995.12
2017-12-30T02:28:21.684Z,995.11
2017-12-30T02:30:14.577Z,995.11
2017-12-30T02:31:14.592Z,995.11
2017-12-30T02:33:07.508Z,995.08
2017-12-30T02:34:07.503Z,995.05
2017-12-30T02:36:00.397Z,995.04
2017-12-30T02:37:00.413Z,995.08
2017-12-30T02:38:53.328Z,995.07
2017-12-30T02:39:53.325Z,995.07
2017-12-30T02:41:46.239Z,995.02
2017-12-30T02:42:46.239Z,995.03
2017-12-30T02:44:39.128Z,995.00
2017-12-30T02:45:39.145Z,994.98
2017-12-30T02:47:32.067Z,994.99
2017-12-30T02:48:32.088Z,995.01
2017-12-30T02:50:24.955Z,994.96
2017-12-30T02:51:24.969Z,995.01
2017-12-30T02:53:18.889Z,994.94
2017-12-30T02:54:18.888Z,994.90
2017-12-30T02:56:11.789Z,994.86
2017-12-30T02:57:11.801Z,994.86
2017-12-30T02:59:04.717Z,994.89
2017-12-30T03:00:04.713Z,994.87
2017-12-30T03:01:57.637Z,994.79
2017-12-30T03:02:57.624Z,994.77
2017-12-30T03:04:50.521Z,994.78
2017-12-30T03:05:50.538Z,994.72
2017-12-30T03:07:43.457Z,994.75
2017-12-30T03:08:43.456Z,994.76
2017-12-30T03:10:36.350Z,994.76
2017-12-30T03:11:36.368Z,994.75
2017-12-30T03:13:29.288Z,994.72
2017-12-30T03:14:29.283Z,994.71
2017-12-30T03:16:22.174Z,994.69
2017-12-30T03:17:22.188Z,994.71
2017-12-30T03:19:15.106Z,994.67
2017-12-30T03:20:15.105Z,994.68
2017-12-30T03:22:08.020Z,994.70
2017-12-30T03:23:08.017Z,994.65
2017-12-30T03:25:00.912Z,994.66
2017-12-30T03:26:00.928Z,994.71
2017-12-30T03:27:53.842Z,994.71
2017-12-30T03:28:53.838Z,994.72
2017-12-30T03:30:46.733Z,994.71
2017-12-30T03:31:46.747Z,994.69
2017-12-30T03:33:39.664Z,994.62
2017-12-30T03:34:39.659Z,994.70
2017-12-30T03:36:32.550Z,994.70
2017-12-30T03:37:32.567Z,994.74
2017-12-30T03:39:25.481Z,994.76
2017-12-30T03:40:25.480Z,994.79
2017-12-30T03:42:18.395Z,994.82
2017-12-30T03:43:18.390Z,994.82
2017-12-30T03:45:11.287Z,994.87
2017-12-30T03:46:11.301Z,994.94
2017-12-30T03:48:04.223Z,994.89
2017-12-30T03:49:04.217Z,994.90
2017-12-30T03:50:57.130Z,994.96
2017-12-30T03:51:57.127Z,994.97
2017-12-30T03:53:50.042Z,994.95
2017-12-30T03:54:50.038Z,994.96
2017-12-30T03:56:42.932Z,994.87
2017-12-30T03:57:42.947Z,994.92
2017-12-30T03:59:35.862Z,994.89
2017-12-30T04:00:35.859Z,994.80
2017-12-30T04:02:28.770Z,994.79
2017-12-30T04:03:28.771Z,994.81
2017-12-30T04:05:21.658Z,994.83
2017-12-30T04:06:21.674Z,994.86
2017-12-30T04:08:14.591Z,994.88
2017-12-30T04:09:14.587Z,994.89
2017-12-30T04:11:07.480Z,994.93
2017-12-30T04:12:07.494Z,994.95
2017-12-30T04:14:00.436Z,994.95
2017-12-30T04:15:00.426Z,994.92
2017-12-30T04:16:53.318Z,994.88
2017-12-30T04:17:53.338Z,994.80
2017-12-30T04:19:46.244Z,994.76
2017-12-30T04:20:46.240Z,994.75
2017-12-30T04:22:39.157Z,994.75
2017-12-30T04:23:39.159Z,994.79
2017-12-30T04:25:33.042Z,994.79
2017-12-30T04:26:33.060Z,994.85
2017-12-30T04:28:25.971Z,994.89
2017-12-30T04:29:25.967Z,994.98
2017-12-30T04:31:18.861Z,995.05
2017-12-30T04:32:18.876Z,995.04
2017-12-30T04:34:11.798Z,995.10
2017-12-30T04:35:11.809Z,995.07
2017-12-30T04:37:04.697Z,995.09
2017-12-30T04:38:04.716Z,995.05
2017-12-30T04:39:57.620Z,995.08
2017-12-30T04:40:57.623Z,995.06
2017-12-30T04:42:50.529Z,995.03
2017-12-30T04:43:50.530Z,995.02
2017-12-30T04:45:44.416Z,994.99
2017-12-30T04:46:44.429Z,994.99
2017-12-30T04:48:37.345Z,994.88
2017-12-30T04:49:37.338Z,994.91
2017-12-30T04:51:30.237Z,994.95
2017-12-30T04:52:30.250Z,994.94
2017-12-30T04:54:23.170Z,994.87
2017-12-30T04:55:23.158Z,994.88
2017-12-30T04:57:16.060Z,994.80
2017-12-30T04:58:16.076Z,994.83
2017-12-30T05:00:08.988Z,994.81
2017-12-30T05:01:08.983Z,994.79
2017-12-30T05:03:02.898Z,994.76
2017-12-30T05:04:02.896Z,994.73
2017-12-30T05:05:55.791Z,994.66
2017-12-30T05:06:55.808Z,994.68
2017-12-30T05:08:48.717Z,994.75
2017-12-30T05:09:48.715Z,994.74
2017-12-30T05:11:41.606Z,994.70
2017-12-30T05:12:41.621Z,994.72
2017-12-30T05:14:34.537Z,994.74
2017-12-30T05:15:34.530Z,994.78
2017-12-30T05:17:27.424Z,994.79
2017-12-30T05:18:27.439Z,994.79
2017-12-30T05:20:20.355Z,994.76
2017-12-30T05:21:20.350Z,994.72
2017-12-30T05:23:13.264Z,994.73
2017-12-30T05:24:13.261Z,994.71
2017-12-30T05:26:06.156Z,994.71
2017-12-30T05:27:06.172Z,994.64
2017-12-30T05:28:59.083Z,994.63
2017-12-30T05:29:59.080Z,994.63
2017-12-30T05:31:51.971Z,994.64
2017-12-30T05:32:51.987Z,994.62
2017-12-30T05:34:45.901Z,994.57
2017-12-30T05:35:45.896Z,994.63
2017-12-30T05:37:38.792Z,994.64
2017-12-30T05:38:38.806Z,994.65
2017-12-30T05:40:31.731Z,994.60
2017-12-30T05:41:31.719Z,994.60
2017-12-30T05:43:24.635Z,994.56
2017-12-30T05:44:24.633Z,994.53
2017-12-30T05:46:17.521Z,994.52
2017-12-30T05:47:17.537Z,994.53
2017-12-30T05:49:10.451Z,994.57
2017-12-30T05:50:10.448Z,994.58
2017-12-30T05:52:03.351Z,994.56
2017-12-30T05:53:03.365Z,994.58
2017-12-30T05:54:56.282Z,994.61
2017-12-30T05:55:56.279Z,994.64
2017-12-30T05:57:49.171Z,994.60
2017-12-30T05:58:49.189Z,994.67
2017-12-30T06:00:43.097Z,994.76
2017-12-30T06:01:43.091Z,994.77
2017-12-30T06:03:36.007Z,994.72
2017-12-30T06:04:36.005Z,994.68
2017-12-30T06:06:28.900Z,994.67
2017-12-30T06:07:28.913Z,994.69
2017-12-30T06:09:21.829Z,994.66
2017-12-30T06:10:21.823Z,994.62
2017-12-30T06:12:14.719Z,994.52
2017-12-30T06:13:14.733Z,994.50
2017-12-30T06:15:07.647Z,994.50
2017-12-30T06:16:07.660Z,994.43
2017-12-30T06:18:00.533Z,994.35
2017-12-30T06:19:00.549Z,994.32
2017-12-30T06:20:53.464Z,994.29
2017-12-30T06:21:53.460Z,994.27
2017-12-30T06:23:46.379Z,994.20
2017-12-30T06:24:46.376Z,994.14
2017-12-30T06:26:39.271Z,994.06
2017-12-30T06:27:39.285Z,994.04
2017-12-30T06:29:32.200Z,994.05
2017-12-30T06:30:32.195Z,994.07
2017-12-30T06:32:25.096Z,994.05
2017-12-30T06:33:25.107Z,994.06
2017-12-30T06:35:18.022Z,993.98
2017-12-30T06:36:18.017Z,993.94
2017-12-30T06:38:10.909Z,993.96
2017-12-30T06:39:10.924Z,993.88
2017-12-30T06:41:04.834Z,993.89
2017-12-30T06:42:04.830Z,993.81
2017-12-30T06:43:57.744Z,993.80
2017-12-30T06:44:57.740Z,993.75
2017-12-30T06:46:50.637Z,993.75
2017-12-30T06:47:50.649Z,993.70
2017-12-30T06:49:43.564Z,993.69
2017-12-30T06:50:43.597Z,993.70
2017-12-30T06:52:36.451Z,993.70
2017-12-30T06:53:36.467Z,993.72
2017-12-30T06:55:29.377Z,993.73
2017-12-30T06:56:29.376Z,993.77
2017-12-30T06:58:22.270Z,993.77
2017-12-30T06:59:22.283Z,993.75
2017-12-30T07:01:15.197Z,993.67
2017-12-30T07:02:15.194Z,993.60
2017-12-30T07:04:08.112Z,993.55
2017-12-30T07:05:08.107Z,993.55
2017-12-30T07:07:01.002Z,993.63
2017-12-30T07:08:01.020Z,993.61
2017-12-30T07:09:53.933Z,993.63
2017-12-30T07:10:53.930Z,993.70
2017-12-30T07:12:46.822Z,993.63
2017-12-30T07:13:46.857Z,993.59
2017-12-30T07:15:39.753Z,993.55
2017-12-30T07:16:39.757Z,993.52
2017-12-30T07:18:32.648Z,993.40
2017-12-30T07:19:32.660Z,993.43
2017-12-30T07:21:25.583Z,993.45
2017-12-30T07:22:25.578Z,993.48
2017-12-30T07:24:18.498Z,993.43
2017-12-30T07:25:18.491Z,993.40
2017-12-30T07:27:11.386Z,993.35
2017-12-30T07:28:11.403Z,993.39
2017-12-30T07:30:04.317Z,993.40
2017-12-30T07:31:04.313Z,993.33
2017-12-30T07:32:57.206Z,993.34
2017-12-30T07:33:57.226Z,993.32
2017-12-30T07:35:50.135Z,993.26
2017-12-30T07:36:50.134Z,993.21
2017-12-30T07:38:43.028Z,993.27
2017-12-30T07:39:43.042Z,993.24
2017-12-30T07:41:35.964Z,993.12
2017-12-30T07:42:35.959Z,993.12
2017-12-30T07:44:28.872Z,992.98
2017-12-30T07:45:29.463Z,992.93
2017-12-30T07:47:21.826Z,992.92
2017-12-30T07:48:21.858Z,992.86
2017-12-30T07:50:14.698Z,992.84
2017-12-30T07:51:14.695Z,992.86
2017-12-30T07:53:07.588Z,992.87
2017-12-30T07:54:07.604Z,992.92
2017-12-30T07:56:00.519Z,992.89
2017-12-30T07:57:00.517Z,992.86
2017-12-30T07:58:53.406Z,992.83
2017-12-30T07:59:53.422Z,992.78
2017-12-30T08:01:46.335Z,992.78
2017-12-30T08:02:46.332Z,992.69
2017-12-30T08:04:39.247Z,992.60
2017-12-30T08:05:39.242Z,992.46
2017-12-30T08:07:32.137Z,992.36
2017-12-30T08:08:32.152Z,992.35
2017-12-30T08:10:25.070Z,992.37
2017-12-30T08:11:25.083Z,992.36
2017-12-30T08:13:17.962Z,992.26
2017-12-30T08:14:17.978Z,992.25
2017-12-30T08:16:10.892Z,992.18
2017-12-30T08:17:10.891Z,992.11
2017-12-30T08:19:03.786Z,992.09
2017-12-30T08:20:03.797Z,992.10
2017-12-30T08:21:56.716Z,991.97
2017-12-30T08:22:56.711Z,991.88
2017-12-30T08:24:49.623Z,991.81
2017-12-30T08:25:49.618Z,991.81
2017-12-30T08:27:42.519Z,991.80
2017-12-30T08:28:42.533Z,991.75
2017-12-30T08:30:35.446Z,991.72
2017-12-30T08:31:35.443Z,991.61
2017-12-30T08:33:28.338Z,991.54
2017-12-30T08:34:28.352Z,991.46
2017-12-30T08:36:21.267Z,991.39
2017-12-30T08:37:21.265Z,991.30
2017-12-30T08:39:14.156Z,991.25
2017-12-30T08:40:14.172Z,991.20
2017-12-30T08:42:08.082Z,991.01
2017-12-30T08:43:08.079Z,990.92
2017-12-30T08:45:00.988Z,990.85
2017-12-30T08:46:00.985Z,990.90
2017-12-30T08:47:53.883Z,990.87
2017-12-30T08:48:53.897Z,990.84
2017-12-30T08:50:46.809Z,990.77
2017-12-30T08:51:46.811Z,990.70
2017-12-30T08:53:39.704Z,990.67
2017-12-30T08:54:39.722Z,990.59
2017-12-30T08:56:32.634Z,990.62
2017-12-30T08:57:32.629Z,990.63
2017-12-30T08:59:25.532Z,990.55
2017-12-30T09:00:25.544Z,990.58
2017-12-30T09:02:18.461Z,990.57
2017-12-30T09:03:18.484Z,990.56
2017-12-30T09:05:11.371Z,990.53
2017-12-30T09:06:11.380Z,990.46
2017-12-30T09:08:04.264Z,990.42
2017-12-30T09:09:04.311Z,990.38
2017-12-30T09:10:57.193Z,990.30
2017-12-30T09:11:57.189Z,990.34
2017-12-30T09:13:50.085Z,990.26
2017-12-30T09:14:50.103Z,990.18
2017-12-30T09:16:43.017Z,990.19
2017-12-30T09:17:43.017Z,990.09
2017-12-30T09:19:35.906Z,990.09
2017-12-30T09:20:35.921Z,990.11
2017-12-30T09:22:28.836Z,989.98
2017-12-30T09:23:28.833Z,990.01
2017-12-30T09:25:21.746Z,990.04
2017-12-30T09:26:21.742Z,990.00
2017-12-30T09:28:14.640Z,989.98
2017-12-30T09:29:14.656Z,989.92
2017-12-30T09:31:08.064Z,989.79
2017-12-30T09:32:08.060Z,989.71
2017-12-30T09:34:00.956Z,989.72
2017-12-30T09:35:00.974Z,989.72
2017-12-30T09:36:53.890Z,989.77
2017-12-30T09:37:53.883Z,989.73
2017-12-30T09:39:46.776Z,989.71
2017-12-30T09:40:46.794Z,989.71
2017-12-30T09:42:39.707Z,989.62
2017-12-30T09:43:39.704Z,989.63
2017-12-30T09:45:32.620Z,989.57
2017-12-30T09:46:32.620Z,989.62
2017-12-30T09:48:25.512Z,989.70
2017-12-30T09:49:25.525Z,989.67
2017-12-30T09:51:18.442Z,989.63
2017-12-30T09:52:18.443Z,989.63
2017-12-30T09:54:11.824Z,989.68
2017-12-30T09:55:11.841Z,989.66
2017-12-30T09:57:04.756Z,989.64
2017-12-30T09:58:04.753Z,989.62
2017-12-30T09:59:58.639Z,989.51
2017-12-30T10:00:58.655Z,989.47
2017-12-30T10:02:51.568Z,989.33
2017-12-30T10:03:51.567Z,989.28
2017-12-30T10:05:44.482Z,989.16
2017-12-30T10:06:44.478Z,989.08
2017-12-30T10:08:37.373Z,989.13
2017-12-30T10:09:37.389Z,989.06
2017-12-30T10:11:30.303Z,989.01
2017-12-30T10:12:30.301Z,988.94
2017-12-30T10:14:23.194Z,988.92
2017-12-30T10:15:23.211Z,988.87
2017-12-30T10:17:16.125Z,988.81
2017-12-30T10:18:16.124Z,988.76
2017-12-30T10:20:09.020Z,988.64
2017-12-30T10:21:09.034Z,988.53
2017-12-30T10:23:01.948Z,988.50
2017-12-30T10:24:01.946Z,988.50
2017-12-30T10:25:54.858Z,988.45
2017-12-30T10:26:54.856Z,988.47
2017-12-30T10:28:47.756Z,988.50
2017-12-30T10:29:47.770Z,988.52
2017-12-30T10:31:40.685Z,988.46
2017-12-30T10:32:40.684Z,988.36
2017-12-30T10:34:33.576Z,988.40
2017-12-30T10:35:33.592Z,988.34
2017-12-30T10:37:26.510Z,988.33
2017-12-30T10:38:26.507Z,988.32
2017-12-30T10:40:19.402Z,988.26
2017-12-30T10:41:19.418Z,988.22
2017-12-30T10:43:12.756Z,988.17
2017-12-30T10:44:12.752Z,988.11
2017-12-30T10:46:05.670Z,988.11
2017-12-30T10:47:05.667Z,988.07
2017-12-30T10:48:58.570Z,988.09
2017-12-30T10:49:58.587Z,988.08
2017-12-30T10:51:51.506Z,988.01
2017-12-30T10:52:51.502Z,988.05
2017-12-30T10:54:44.397Z,987.99
2017-12-30T10:55:44.421Z,988.01
2017-12-30T10:57:37.329Z,988.03
2017-12-30T10:58:37.326Z,987.98
2017-12-30T11:00:30.223Z,987.96
2017-12-30T11:01:30.238Z,987.95
2017-12-30T11:03:23.182Z,987.97
2017-12-30T11:04:23.152Z,987.94
2017-12-30T11:06:16.067Z,987.79
2017-12-30T11:07:16.066Z,987.83
2017-12-30T11:09:08.960Z,987.85
2017-12-30T11:10:08.979Z,987.92
2017-12-30T11:12:01.896Z,987.91
2017-12-30T11:13:01.894Z,987.91
2017-12-30T11:14:54.788Z,987.97
2017-12-30T11:15:54.804Z,987.98
2017-12-30T11:17:47.738Z,988.04
2017-12-30T11:18:47.738Z,988.03
2017-12-30T11:20:40.648Z,987.99
2017-12-30T11:21:40.675Z,987.97
2017-12-30T11:23:33.580Z,987.95
2017-12-30T11:24:33.581Z,987.82
2017-12-30T11:26:26.498Z,987.83
2017-12-30T11:27:26.495Z,987.84
2017-12-30T11:29:19.509Z,987.83
2017-12-30T11:30:19.410Z,987.82
2017-12-30T11:32:12.507Z,987.87
2017-12-30T11:33:12.505Z,987.87
2017-12-30T11:35:06.396Z,987.79
2017-12-30T11:36:06.416Z,987.79
2017-12-30T11:37:59.330Z,987.74
2017-12-30T11:38:59.332Z,987.74
2017-12-30T11:40:52.226Z,987.71
2017-12-30T11:41:52.244Z,987.74
2017-12-30T11:43:45.161Z,987.66
2017-12-30T11:44:45.159Z,987.64
2017-12-30T11:46:38.081Z,987.60
2017-12-30T11:47:38.078Z,987.59
2017-12-30T11:49:30.979Z,987.61
2017-12-30T11:50:31.005Z,987.55
2017-12-30T11:52:23.914Z,987.46
2017-12-30T11:53:23.906Z,987.50
2017-12-30T11:55:16.803Z,987.50
2017-12-30T11:56:16.821Z,987.51
2017-12-30T11:58:09.735Z,987.56
2017-12-30T11:59:09.735Z,987.57
2017-12-30T12:01:02.632Z,987.57
2017-12-30T12:02:02.649Z,987.58
2017-12-30T12:03:55.568Z,987.58
2017-12-30T12:04:55.568Z,987.52
2017-12-30T12:06:48.483Z,987.63
2017-12-30T12:07:48.479Z,987.59
2017-12-30T12:09:41.382Z,987.58
2017-12-30T12:10:41.398Z,987.54
2017-12-30T12:12:34.313Z,987.51
2017-12-30T12:13:34.309Z,987.51
2017-12-30T12:15:27.217Z,987.45
2017-12-30T12:16:27.224Z,987.47
2017-12-30T12:18:20.136Z,987.58
2017-12-30T12:19:20.137Z,987.56
2017-12-30T12:21:13.034Z,987.60
2017-12-30T12:22:13.057Z,987.65
2017-12-30T12:24:05.969Z,987.57
2017-12-30T12:25:05.969Z,987.66
2017-12-30T12:26:58.884Z,987.67
2017-12-30T12:27:58.883Z,987.69
2017-12-30T12:29:51.784Z,987.68
2017-12-30T12:30:51.800Z,987.65
2017-12-30T12:32:44.721Z,987.71
2017-12-30T12:33:44.717Z,987.64
2017-12-30T12:35:37.671Z,987.68
2017-12-30T12:36:37.635Z,987.71
2017-12-30T12:38:30.556Z,987.75
2017-12-30T12:39:30.550Z,987.77
2017-12-30T12:41:24.444Z,987.68
2017-12-30T12:42:24.463Z,987.64
2017-12-30T12:44:17.388Z,987.71
2017-12-30T12:45:17.386Z,987.70
2017-12-30T12:47:10.305Z,987.79
2017-12-30T12:48:10.300Z,987.73
2017-12-30T12:50:03.198Z,987.69
2017-12-30T12:51:03.215Z,987.71
2017-12-30T12:52:56.137Z,987.71
2017-12-30T12:53:56.137Z,987.62
2017-12-30T12:55:49.035Z,987.68
2017-12-30T12:56:49.052Z,987.73
2017-12-30T12:58:41.979Z,987.75
2017-12-30T12:59:41.984Z,987.78
2017-12-30T13:01:34.873Z,987.80
2017-12-30T13:02:34.984Z,987.78
2017-12-30T13:04:27.806Z,987.92
2017-12-30T13:05:27.806Z,987.98
2017-12-30T13:07:20.733Z,988.06
2017-12-30T13:08:20.724Z,988.06
2017-12-30T13:10:13.623Z,988.13
2017-12-30T13:11:13.641Z,988.12
2017-12-30T13:13:06.561Z,988.17
2017-12-30T13:14:06.560Z,988.18
2017-12-30T13:15:59.469Z,988.12
2017-12-30T13:16:59.479Z,988.17
2017-12-30T13:18:52.400Z,988.21
2017-12-30T13:19:52.401Z,988.22
2017-12-30T13:21:45.299Z,988.21
2017-12-30T13:22:45.320Z,988.31
2017-12-30T13:24:38.236Z,988.35
2017-12-30T13:25:38.236Z,988.33
2017-12-30T13:27:32.151Z,988.31
2017-12-30T13:28:32.153Z,988.26
2017-12-30T13:30:25.058Z,988.24
2017-12-30T13:31:25.074Z,988.31
2017-12-30T13:33:17.999Z,988.34
2017-12-30T13:34:18.000Z,988.42
2017-12-30T13:36:10.932Z,988.53
2017-12-30T13:37:10.919Z,988.45
2017-12-30T13:39:03.844Z,988.44
2017-12-30T13:40:03.844Z,988.38
2017-12-30T13:41:56.753Z,988.54
2017-12-30T13:42:56.783Z,988.48
2017-12-30T13:44:49.693Z,988.49
2017-12-30T13:45:49.694Z,988.66
2017-12-30T13:47:42.632Z,988.71
2017-12-30T13:48:42.614Z,988.74
2017-12-30T13:50:35.515Z,988.71
2017-12-30T13:51:35.540Z,988.77
2017-12-30T13:53:28.457Z,988.81
2017-12-30T13:54:28.457Z,988.78
2017-12-30T13:56:21.358Z,988.85
2017-12-30T13:57:21.377Z,988.84
2017-12-30T13:59:14.299Z,988.92
2017-12-30T14:00:14.297Z,988.96
2017-12-30T14:02:07.200Z,988.91
2017-12-30T14:03:07.216Z,988.95
2017-12-30T14:05:00.136Z,989.01
2017-12-30T14:06:00.136Z,989.06
2017-12-30T14:07:53.057Z,988.98
2017-12-30T14:08:53.056Z,989.25
2017-12-30T14:10:45.975Z,989.22
2017-12-30T14:11:45.975Z,989.24
2017-12-30T14:13:38.900Z,989.29
2017-12-30T14:14:38.899Z,989.26
2017-12-30T14:16:31.799Z,989.24
2017-12-30T14:17:31.827Z,989.20
2017-12-30T14:19:24.741Z,989.23
2017-12-30T14:20:24.744Z,989.18
2017-12-30T14:22:17.644Z,989.20
2017-12-30T14:23:17.672Z,989.24
2017-12-30T14:25:11.585Z,989.23
2017-12-30T14:26:11.583Z,989.23
2017-12-30T14:28:04.523Z,989.32
2017-12-30T14:29:04.507Z,989.10
2017-12-30T14:30:57.413Z,989.43
2017-12-30T14:31:57.431Z,989.51
2017-12-30T14:33:50.357Z,989.45
2017-12-30T14:34:50.358Z,989.39
2017-12-30T14:36:43.263Z,989.42
2017-12-30T14:37:43.291Z,989.50
2017-12-30T14:39:36.205Z,989.54
2017-12-30T14:40:36.201Z,989.58
2017-12-30T14:42:30.139Z,989.67
2017-12-30T14:43:30.172Z,989.78
2017-12-30T14:45:23.086Z,989.79
2017-12-30T14:46:23.085Z,989.86
2017-12-30T14:48:16.026Z,989.94
2017-12-30T14:49:16.008Z,989.85
2017-12-30T14:51:08.916Z,989.96
2017-12-30T14:52:08.930Z,989.97
2017-12-30T14:54:01.852Z,989.99
2017-12-30T14:55:01.855Z,989.96
2017-12-30T14:56:54.755Z,990.06
2017-12-30T14:57:54.776Z,990.13
2017-12-30T14:59:47.703Z,990.28
2017-12-30T15:00:47.699Z,990.16
2017-12-30T15:02:40.599Z,990.08
2017-12-30T15:03:40.618Z,990.08
2017-12-30T15:05:33.540Z,990.08
2017-12-30T15:06:33.540Z,990.17
2017-12-30T15:08:26.470Z,990.26
2017-12-30T15:09:26.468Z,990.27
2017-12-30T15:11:19.367Z,990.38
2017-12-30T15:12:19.388Z,990.42
2017-12-30T15:14:12.310Z,990.52
2017-12-30T15:15:12.310Z,990.54
2017-12-30T15:17:05.213Z,990.46
2017-12-30T15:18:05.232Z,990.50
2017-12-30T15:19:58.156Z,990.46
2017-12-30T15:20:58.160Z,990.51
2017-12-30T15:22:51.069Z,990.51
2017-12-30T15:23:51.084Z,990.54
2017-12-30T15:25:44.006Z,990.76
2017-12-30T15:26:44.021Z,990.80
2017-12-30T15:28:36.909Z,990.86
2017-12-30T15:29:36.928Z,990.80
2017-12-30T15:31:29.857Z,990.85
2017-12-30T15:32:29.884Z,990.91
2017-12-30T15:34:22.777Z,990.84
2017-12-30T15:35:22.783Z,990.90
2017-12-30T15:37:15.696Z,991.00
2017-12-30T15:38:15.711Z,990.96
2017-12-30T15:40:09.752Z,991.07
2017-12-30T15:41:08.642Z,991.02
2017-12-30T15:43:01.549Z,990.99
2017-12-30T15:44:01.568Z,990.99
2017-12-30T15:45:54.527Z,991.09
2017-12-30T15:46:54.508Z,991.05
2017-12-30T15:48:47.469Z,991.23
2017-12-30T15:49:47.429Z,991.30
2017-12-30T15:52:41.167Z,991.34
2017-12-30T15:54:34.096Z,991.13
2017-12-30T15:55:34.094Z,991.45
2017-12-30T15:57:26.994Z,991.53
2017-12-30T15:58:27.014Z,991.55
2017-12-30T16:00:20.379Z,991.50
2017-12-30T16:01:19.940Z,991.58
2017-12-30T16:03:12.844Z,991.80
2017-12-30T16:04:12.859Z,991.75
2017-12-30T16:06:05.783Z,991.66
2017-12-30T16:07:05.781Z,991.69
2017-12-30T16:08:58.686Z,991.70
2017-12-30T16:09:58.706Z,991.74
2017-12-30T16:11:51.632Z,991.58
2017-12-30T16:12:51.629Z,991.74
2017-12-30T16:14:45.556Z,991.76
2017-12-30T16:15:45.553Z,991.72
2017-12-30T16:17:38.456Z,991.76
2017-12-30T16:18:38.476Z,991.71
2017-12-30T16:20:31.404Z,991.76
2017-12-30T16:21:31.404Z,991.78
2017-12-30T16:23:24.312Z,991.90
2017-12-30T16:24:24.332Z,991.81
2017-12-30T16:26:17.252Z,991.72
2017-12-30T16:27:17.254Z,991.77
2017-12-30T16:29:10.157Z,991.74
2017-12-30T16:30:10.176Z,991.78
2017-12-30T16:32:03.175Z,991.89
2017-12-30T16:33:03.174Z,991.94
2017-12-30T16:34:56.277Z,991.90
2017-12-30T16:35:56.281Z,991.92
2017-12-30T16:37:49.181Z,992.11
2017-12-30T16:38:49.204Z,992.05
2017-12-30T16:40:42.133Z,992.17
2017-12-30T16:41:42.139Z,992.18
2017-12-30T16:43:35.047Z,992.23
2017-12-30T16:44:35.061Z,992.23
2017-12-30T16:46:27.998Z,992.24
2017-12-30T16:47:27.998Z,992.35
2017-12-30T16:49:20.897Z,992.23
2017-12-30T16:50:20.917Z,992.32
2017-12-30T16:52:13.836Z,992.29
2017-12-30T16:53:13.837Z,992.32
2017-12-30T16:55:06.760Z,992.36
2017-12-30T16:56:06.762Z,992.28
2017-12-30T16:57:59.671Z,992.40
2017-12-30T16:58:59.690Z,992.40
2017-12-30T17:00:52.614Z,992.46
2017-12-30T17:01:52.612Z,992.51
2017-12-30T17:03:45.525Z,992.60
2017-12-30T17:04:45.545Z,992.58
2017-12-30T17:06:38.481Z,992.67
2017-12-30T17:07:38.546Z,992.56
2017-12-30T17:09:31.386Z,992.70
2017-12-30T17:10:31.405Z,992.61
2017-12-30T17:12:24.349Z,992.59
2017-12-30T17:13:24.331Z,992.69
2017-12-30T17:15:17.251Z,992.79
2017-12-30T17:16:17.254Z,992.80
2017-12-30T17:18:10.158Z,992.88
2017-12-30T17:19:10.183Z,992.73
2017-12-30T17:21:03.109Z,992.93
2017-12-30T17:22:03.109Z,992.78
2017-12-30T17:23:56.046Z,992.89
2017-12-30T17:24:56.049Z,992.84
2017-12-30T17:26:48.969Z,992.87
2017-12-30T17:27:48.971Z,993.00
2017-12-30T17:29:41.872Z,993.00
2017-12-30T17:30:41.897Z,993.10
2017-12-30T17:32:34.813Z,993.08
2017-12-30T17:33:34.812Z,993.03
2017-12-30T17:35:27.733Z,993.13
2017-12-30T17:36:27.734Z,993.12
2017-12-30T17:38:20.651Z,993.20
2017-12-30T17:39:20.656Z,993.10
2017-12-30T17:41:13.580Z,993.18
2017-12-30T17:42:13.579Z,993.16
2017-12-30T17:44:06.485Z,993.07
2017-12-30T17:45:06.503Z,993.08
2017-12-30T17:46:59.425Z,993.18
2017-12-30T17:47:59.426Z,993.30
2017-12-30T17:49:53.372Z,993.24
2017-12-30T17:50:53.391Z,993.24
2017-12-30T17:52:46.315Z,993.13
2017-12-30T17:53:46.312Z,993.22
2017-12-30T17:55:39.241Z,993.22
2017-12-30T17:56:39.238Z,993.25
2017-12-30T17:58:32.143Z,993.20
2017-12-30T17:59:32.156Z,993.25